| time (UTC) | temp C | wind direction | speed KPH | gust KPH | rain 1hr cm | rain 24hr cm | rain mn cm | humidity % | barometer mb |
| 20260506232113 | 13 | 68 | 3.2 | 9.7 | 0.20 | 1.45 | 1.42 | 99 | 1001.2 |
| 20260506231612 | 13 | 142 | 4.8 | 16.1 | 0.20 | 1.45 | 1.42 | 99 | 1001.1 |
| 20260506231342 | 14 | 137 | 3.2 | 16.1 | 0.20 | 1.45 | 1.42 | 100 | 1000.9 |
| 20260506230843 | 14 | 255 | 1.6 | 3.2 | 0.20 | 1.45 | 1.42 | 100 | 1000.8 |
| 20260506230113 | 14 | 126 | 0.0 | 3.2 | 0.20 | 1.45 | 1.42 | 100 | 1000.7 |
| 20260506225612 | 14 | 277 | 0.0 | 3.2 | 0.18 | 1.42 | 1.40 | 100 | 1000.5 |
| 20260506225343 | 14 | 209 | 1.6 | 4.8 | 0.18 | 1.42 | 1.40 | 100 | 1000.4 |
| 20260506224612 | 14 | 192 | 1.6 | 6.4 | 0.15 | 1.40 | 1.40 | 100 | 1000.3 |
| 20260506224110 | 14 | 225 | 0.0 | 6.4 | 0.15 | 1.40 | 1.37 | 100 | 1000.3 |
| 20260506223610 | 14 | 263 | 0.0 | 3.2 | 0.10 | 1.35 | 1.35 | 100 | 1000.4 |
| 20260506223110 | 15 | 231 | 0.0 | 3.2 | 0.03 | 1.27 | 1.27 | 100 | 1000.4 |
| 20260506222610 | 15 | 213 | 0.0 | 3.2 | 0.00 | 1.24 | 1.22 | 100 | 1000.3 |
| 20260506222110 | 15 | 160 | 0.0 | 3.2 | 0.00 | 1.24 | 1.22 | 100 | 1000.2 |
| 20260506221610 | 15 | 146 | 0.0 | 3.2 | 0.00 | 1.24 | 1.22 | 99 | 1000.2 |
| 20260506221110 | 15 | 169 | 0.0 | 8.0 | 0.00 | 1.27 | 1.22 | 99 | 1000.3 |
| 20260506220611 | 15 | 218 | 0.0 | 8.0 | 0.00 | 1.27 | 1.22 | 99 | 1000.3 |
| 20260506220109 | 15 | 108 | 0.0 | 4.8 | 0.00 | 1.27 | 1.22 | 99 | 1000.4 |
| 20260506215608 | 15 | 202 | 0.0 | 6.4 | 0.00 | 1.27 | 1.22 | 100 | 1000.3 |
| 20260506215337 | 15 | 167 | 0.0 | 6.4 | 0.00 | 1.27 | 1.22 | 99 | 1000.3 |
| 20260506214606 | 15 | 187 | 0.0 | 4.8 | 0.03 | 1.27 | 1.22 | 99 | 1000.3 |
| 20260506214337 | 15 | 269 | 0.0 | 4.8 | 0.03 | 1.27 | 1.22 | 99 | 1000.3 |
| 20260506213606 | 15 | 266 | 1.6 | 8.0 | 0.03 | 1.27 | 1.22 | 99 | 1000.3 |
| 20260506213106 | 15 | 213 | 1.6 | 8.0 | 0.03 | 1.27 | 1.22 | 99 | 1000.3 |
| 20260506212606 | 15 | 132 | 1.6 | 11.3 | 0.03 | 1.27 | 1.22 | 99 | 1000.3 |
| 20260506212106 | 15 | 146 | 1.6 | 11.3 | 0.03 | 1.27 | 1.22 | 99 | 1000.1 |
| 20260506211605 | 15 | 240 | 1.6 | 9.7 | 0.03 | 1.27 | 1.22 | 99 | 1000.3 |
| 20260506211104 | 15 | 229 | 1.6 | 12.9 | 0.03 | 1.27 | 1.22 | 100 | 1000.3 |
| 20260506210604 | 15 | 222 | 1.6 | 12.9 | 0.05 | 1.27 | 1.22 | 99 | 1000.2 |
| 20260506210104 | 15 | 270 | 1.6 | 9.7 | 0.05 | 1.27 | 1.22 | 100 | 1000.3 |
| 20260506205604 | 15 | 219 | 1.6 | 11.3 | 0.05 | 1.27 | 1.22 | 100 | 1000.3 |
| 20260506205104 | 15 | 105 | 3.2 | 14.5 | 0.05 | 1.27 | 1.22 | 100 | 1000.3 |
| 20260506204604 | 15 | 108 | 1.6 | 14.5 | 0.03 | 1.24 | 1.19 | 100 | 1000.3 |
| 20260506204104 | 15 | 41 | 1.6 | 11.3 | 0.03 | 1.24 | 1.19 | 100 | 1000.3 |
| 20260506203601 | 15 | 199 | 1.6 | 8.0 | 0.03 | 1.24 | 1.19 | 100 | 1000.4 |
| 20260506203102 | 15 | 122 | 1.6 | 8.0 | 0.03 | 1.24 | 1.19 | 100 | 1000.4 |
| 20260506202602 | 15 | 205 | 1.6 | 8.0 | 0.03 | 1.24 | 1.19 | 100 | 1000.5 |
| 20260506202100 | 15 | 337 | 1.6 | 6.4 | 0.03 | 1.24 | 1.19 | 100 | 1000.4 |
| 20260506201600 | 15 | 172 | 1.6 | 8.0 | 0.03 | 1.24 | 1.19 | 100 | 1000.5 |
| 20260506201058 | 15 | 217 | 1.6 | 8.0 | 0.03 | 1.24 | 1.19 | 100 | 1000.5 |
| 20260506200557 | 15 | 170 | 1.6 | 6.4 | 0.03 | 1.22 | 1.17 | 100 | 1000.7 |
| 20260506200058 | 15 | 213 | 1.6 | 6.4 | 0.03 | 1.22 | 1.17 | 100 | 1000.7 |
| 20260506195830 | 15 | 107 | 1.6 | 4.8 | 0.03 | 1.22 | 1.17 | 100 | 1000.7 |
| 20260506195103 | 15 | 201 | 1.6 | 6.4 | 0.05 | 1.22 | 1.17 | 100 | 1000.8 |
| 20260506195057 | 15 | 195 | 1.6 | 4.8 | 0.05 | 1.22 | 1.17 | 100 | 1000.8 |
| 20260506194058 | 15 | 142 | 1.6 | 8.0 | 0.08 | 1.22 | 1.17 | 99 | 1000.8 |
| 20260506193828 | 15 | 244 | 1.6 | 8.0 | 0.10 | 1.22 | 1.17 | 99 | 1000.9 |
| 20260506193058 | 15 | 200 | 1.6 | 8.0 | 0.13 | 1.22 | 1.17 | 99 | 1000.9 |
| 20260506192557 | 15 | 116 | 1.6 | 6.4 | 0.13 | 1.22 | 1.17 | 99 | 1001.0 |
| 20260506192328 | 15 | 159 | 0.0 | 6.4 | 0.18 | 1.22 | 1.17 | 99 | 1001.0 |
| 20260506191557 | 15 | 187 | 1.6 | 9.7 | 0.23 | 1.22 | 1.17 | 99 | 1001.1 |
| 20260506191326 | 15 | 182 | 3.2 | 11.3 | 0.28 | 1.22 | 1.17 | 99 | 1001.0 |
| 20260506190825 | 15 | 124 | 1.6 | 11.3 | 0.30 | 1.19 | 1.14 | 99 | 1001.0 |
| 20260506190325 | 14 | 123 | 1.6 | 11.3 | 0.36 | 1.19 | 1.14 | 99 | 1001.2 |
| 20260506185554 | 14 | 171 | 1.6 | 11.3 | 0.38 | 1.19 | 1.14 | 100 | 1001.2 |
| 20260506185054 | 14 | 222 | 1.6 | 8.0 | 0.41 | 1.17 | 1.12 | 99 | 1001.3 |
| 20260506184552 | 14 | 148 | 0.0 | 8.0 | 0.43 | 1.17 | 1.12 | 100 | 1001.3 |
| 20260506184051 | 14 | 116 | 0.0 | 4.8 | 0.43 | 1.14 | 1.09 | 99 | 1001.3 |
| 20260506183550 | 14 | 159 | 0.0 | 4.8 | 0.43 | 1.12 | 1.07 | 99 | 1001.4 |
| 20260506183051 | 14 | 348 | 0.0 | 4.8 | 0.43 | 1.09 | 1.04 | 99 | 1001.4 |
| 20260506182550 | 14 | 216 | 0.0 | 3.2 | 0.46 | 1.09 | 1.04 | 99 | 1001.5 |
| 20260506182047 | 14 | 147 | 0.0 | 6.4 | 0.43 | 1.04 | 0.99 | 99 | 1001.6 |
| 20260506181548 | 14 | 207 | 1.6 | 6.4 | 0.43 | 0.99 | 0.94 | 99 | 1001.9 |
| 20260506181319 | 14 | 108 | 1.6 | 8.0 | 0.41 | 0.94 | 0.89 | 99 | 1001.9 |
| 20260506180545 | 14 | 102 | 0.0 | 8.0 | 0.38 | 0.89 | 0.84 | 99 | 1002.0 |
| 20260506180046 | 14 | 220 | 1.6 | 4.8 | 0.38 | 0.84 | 0.79 | 99 | 1002.1 |
| 20260506175546 | 14 | 217 | 1.6 | 6.4 | 0.41 | 0.81 | 0.76 | 99 | 1002.1 |
| 20260506175045 | 14 | 170 | 0.0 | 8.0 | 0.38 | 0.76 | 0.71 | 99 | 1002.1 |
| 20260506174546 | 14 | 246 | 0.0 | 8.0 | 0.38 | 0.74 | 0.69 | 99 | 1002.2 |
| 20260506174043 | 14 | 196 | 0.0 | 6.4 | 0.38 | 0.71 | 0.66 | 99 | 1002.5 |
| 20260506173544 | 14 | 112 | 1.6 | 6.4 | 0.38 | 0.69 | 0.64 | 99 | 1002.7 |
| 20260506173043 | 14 | 224 | 1.6 | 4.8 | 0.38 | 0.66 | 0.61 | 99 | 1002.7 |
| 20260506172544 | 14 | 243 | 1.6 | 6.4 | 0.38 | 0.64 | 0.58 | 99 | 1002.9 |
| 20260506172043 | 14 | 237 | 1.6 | 6.4 | 0.38 | 0.61 | 0.56 | 99 | 1002.9 |
| 20260506171814 | 14 | 247 | 1.6 | 6.4 | 0.36 | 0.56 | 0.53 | 99 | 1003.1 |
| 20260506171043 | 14 | 187 | 1.6 | 9.7 | 0.33 | 0.53 | 0.48 | 99 | 1003.0 |
| 20260506170544 | 14 | 267 | 1.6 | 9.7 | 0.30 | 0.51 | 0.46 | 99 | 1003.1 |
| 20260506170314 | 14 | 217 | 1.6 | 19.3 | 0.28 | 0.46 | 0.41 | 98 | 1003.0 |
| 20260506165543 | 14 | 232 | 3.2 | 19.3 | 0.23 | 0.41 | 0.38 | 98 | 1003.1 |
| 20260506165043 | 14 | 145 | 3.2 | 11.3 | 0.23 | 0.38 | 0.33 | 98 | 1003.0 |
| 20260506164815 | 14 | 219 | 1.6 | 11.3 | 0.23 | 0.36 | 0.30 | 98 | 1003.0 |
| 20260506164652 | 14 | 205 | 1.6 | 9.7 | 0.20 | 0.33 | 0.28 | 98 | 1003.0 |
| 20260506163543 | 14 | 183 | 1.6 | 4.8 | 0.18 | 0.30 | 0.25 | 98 | 1003.0 |
| 20260506163043 | 15 | 271 | 1.6 | 4.8 | 0.15 | 0.28 | 0.23 | 98 | 1003.0 |
| 20260506162543 | 15 | 221 | 1.6 | 4.8 | 0.13 | 0.25 | 0.20 | 98 | 1003.0 |
| 20260506162044 | 15 | 191 | 0.0 | 4.8 | 0.13 | 0.23 | 0.18 | 97 | 1003.1 |
| 20260506161544 | 15 | 132 | 0.0 | 6.4 | 0.10 | 0.20 | 0.18 | 98 | 1003.2 |
| 20260506161043 | 15 | 201 | 1.6 | 6.4 | 0.10 | 0.20 | 0.15 | 97 | 1003.2 |
| 20260506160543 | 15 | 233 | 1.6 | 4.8 | 0.10 | 0.20 | 0.15 | 97 | 1003.2 |
| 20260506160044 | 15 | 173 | 1.6 | 4.8 | 0.10 | 0.18 | 0.13 | 97 | 1003.2 |
| 20260506155543 | 15 | 108 | 0.0 | 3.2 | 0.10 | 0.18 | 0.13 | 97 | 1003.3 |
| 20260506155044 | 15 | 229 | 0.0 | 3.2 | 0.08 | 0.15 | 0.10 | 97 | 1003.4 |
| 20260506154543 | 15 | 288 | 0.0 | 0.0 | 0.05 | 0.13 | 0.10 | 96 | 1003.3 |
| 20260506154044 | 15 | 173 | 0.0 | 0.0 | 0.05 | 0.13 | 0.08 | 96 | 1003.4 |
| 20260506153541 | 15 | 225 | 0.0 | 1.6 | 0.05 | 0.13 | 0.08 | 95 | 1003.4 |
| 20260506153313 | 15 | 176 | 0.0 | 3.2 | 0.05 | 0.13 | 0.08 | 95 | 1003.6 |
| 20260506152541 | 15 | 279 | 0.0 | 4.8 | 0.05 | 0.13 | 0.08 | 94 | 1003.8 |
| 20260506152041 | 15 | 198 | 0.0 | 4.8 | 0.03 | 0.10 | 0.05 | 94 | 1003.8 |
| 20260506151539 | 15 | 246 | 1.6 | 6.4 | 0.03 | 0.10 | 0.05 | 94 | 1003.8 |
| 20260506151311 | 15 | 248 | 1.6 | 6.4 | 0.03 | 0.10 | 0.05 | 93 | 1003.9 |
| 20260506150808 | 15 | 217 | 1.6 | 6.4 | 0.03 | 0.10 | 0.05 | 92 | 1003.9 |
| 20260506150033 | 15 | 215 | 3.2 | 8.0 | 0.00 | 0.08 | 0.03 | 91 | 1004.1 |
| 20260506145534 | 15 | 225 | 3.2 | 8.0 | 0.00 | 0.08 | 0.03 | 90 | 1004.2 |
| 20260506145033 | 15 | 217 | 3.2 | 11.3 | 0.00 | 0.08 | 0.03 | 89 | 1004.1 |
| 20260506144803 | 15 | 217 | 3.2 | 11.3 | 0.00 | 0.08 | 0.03 | 89 | 1004.2 |
| 20260506144029 | 15 | 317 | 3.2 | 8.0 | 0.00 | 0.08 | 0.03 | 88 | 1004.2 |
| 20260506143529 | 15 | 279 | 1.6 | 8.0 | 0.00 | 0.08 | 0.03 | 88 | 1004.1 |
| 20260506143300 | 15 | 217 | 1.6 | 4.8 | 0.00 | 0.08 | 0.03 | 88 | 1004.0 |
| 20260506142529 | 15 | 334 | 1.6 | 6.4 | 0.00 | 0.08 | 0.03 | 88 | 1004.0 |
| 20260506142030 | 15 | 297 | 0.0 | 6.4 | 0.00 | 0.08 | 0.03 | 87 | 1003.9 |
| 20260506141529 | 15 | 212 | 0.0 | 1.6 | 0.00 | 0.08 | 0.03 | 88 | 1003.8 |
| 20260506141029 | 15 | 172 | 0.0 | 1.6 | 0.00 | 0.08 | 0.03 | 87 | 1003.8 |
| 20260506140528 | 15 | 175 | 0.0 | 3.2 | 0.00 | 0.08 | 0.03 | 88 | 1003.8 |
| 20260506140028 | 15 | 209 | 0.0 | 3.2 | 0.00 | 0.08 | 0.03 | 88 | 1003.9 |
| 20260506135527 | 15 | 272 | 1.6 | 8.0 | 0.00 | 0.08 | 0.03 | 88 | 1003.8 |
| 20260506135306 | 15 | 151 | 1.6 | 6.4 | 0.00 | 0.08 | 0.03 | 88 | 1003.8 |
| 20260506135027 | 15 | 266 | 1.6 | 8.0 | 0.00 | 0.08 | 0.03 | 88 | 1003.7 |
| 20260506134027 | 15 | 234 | 1.6 | 6.4 | 0.00 | 0.08 | 0.03 | 89 | 1003.8 |
| 20260506133759 | 15 | 285 | 1.6 | 4.8 | 0.00 | 0.08 | 0.03 | 90 | 1003.8 |
| 20260506133025 | 14 | 225 | 1.6 | 4.8 | 0.00 | 0.08 | 0.03 | 91 | 1003.8 |
| 20260506132525 | 14 | 217 | 1.6 | 4.8 | 0.00 | 0.08 | 0.03 | 91 | 1003.9 |
| 20260506132025 | 14 | 222 | 1.6 | 4.8 | 0.00 | 0.08 | 0.03 | 91 | 1004.0 |
| 20260506131524 | 14 | 326 | 1.6 | 6.4 | 0.00 | 0.08 | 0.03 | 91 | 1003.9 |
| 20260506131025 | 13 | 195 | 1.6 | 6.4 | 0.00 | 0.08 | 0.03 | 92 | 1004.1 |
| 20260506130525 | 13 | 243 | 1.6 | 6.4 | 0.00 | 0.08 | 0.03 | 92 | 1004.2 |
| 20260506130025 | 13 | 197 | 1.6 | 6.4 | 0.00 | 0.08 | 0.03 | 92 | 1004.3 |
| 20260506125528 | 13 | 174 | 1.6 | 6.4 | 0.00 | 0.08 | 0.03 | 93 | 1004.5 |
| 20260506125523 | 13 | 239 | 1.6 | 6.4 | 0.00 | 0.08 | 0.03 | 93 | 1004.4 |
| 20260506124523 | 13 | 254 | 1.6 | 6.4 | 0.00 | 0.08 | 0.03 | 93 | 1004.6 |
| 20260506124254 | 13 | 258 | 1.6 | 11.3 | 0.00 | 0.08 | 0.03 | 93 | 1004.5 |
| 20260506123523 | 13 | 219 | 1.6 | 11.3 | 0.00 | 0.08 | 0.03 | 93 | 1004.5 |
| 20260506123022 | 13 | 222 | 1.6 | 9.7 | 0.00 | 0.08 | 0.03 | 94 | 1004.6 |
| 20260506122521 | 13 | 255 | 1.6 | 9.7 | 0.00 | 0.08 | 0.03 | 95 | 1004.6 |
| 20260506122022 | 13 | 253 | 1.6 | 9.7 | 0.00 | 0.08 | 0.03 | 95 | 1004.6 |
| 20260506121521 | 13 | 210 | 1.6 | 9.7 | 0.00 | 0.08 | 0.03 | 95 | 1004.6 |
| 20260506121021 | 12 | 273 | 1.6 | 11.3 | 0.00 | 0.08 | 0.03 | 95 | 1004.4 |
| 20260506120521 | 12 | 226 | 1.6 | 11.3 | 0.00 | 0.08 | 0.03 | 95 | 1003.9 |
| 20260506120021 | 12 | 238 | 1.6 | 6.4 | 0.00 | 0.08 | 0.03 | 95 | 1003.8 |
| 20260506115522 | 12 | 221 | 1.6 | 9.7 | 0.00 | 0.08 | 0.03 | 96 | 1004.2 |
| 20260506115021 | 12 | 203 | 1.6 | 9.7 | 0.00 | 0.08 | 0.03 | 96 | 1004.4 |
| 20260506114521 | 12 | 209 | 3.2 | 8.0 | 0.00 | 0.08 | 0.03 | 96 | 1004.3 |
| 20260506114021 | 12 | 208 | 3.2 | 8.0 | 0.00 | 0.08 | 0.03 | 96 | 1004.4 |
| 20260506113521 | 12 | 232 | 1.6 | 6.4 | 0.00 | 0.08 | 0.03 | 97 | 1004.5 |
| 20260506113251 | 12 | 239 | 1.6 | 8.0 | 0.00 | 0.08 | 0.03 | 97 | 1004.5 |
| 20260506112521 | 12 | 217 | 3.2 | 14.5 | 0.00 | 0.08 | 0.03 | 97 | 1004.5 |
| 20260506112021 | 12 | 223 | 3.2 | 14.5 | 0.00 | 0.08 | 0.03 | 97 | 1004.6 |
| 20260506111521 | 12 | 219 | 1.6 | 11.3 | 0.00 | 0.08 | 0.03 | 98 | 1004.5 |
| 20260506111022 | 12 | 204 | 1.6 | 11.3 | 0.00 | 0.08 | 0.03 | 99 | 1004.3 |
| 20260506110521 | 12 | 222 | 3.2 | 8.0 | 0.00 | 0.08 | 0.03 | 99 | 1004.0 |
| 20260506110021 | 11 | 239 | 1.6 | 16.1 | 0.00 | 0.08 | 0.03 | 100 | 1004.2 |
| 20260506105521 | 11 | 208 | 1.6 | 16.1 | 0.00 | 0.08 | 0.03 | 100 | 1004.2 |
| 20260506105021 | 11 | 291 | 1.6 | 6.4 | 0.00 | 0.08 | 0.03 | 100 | 1004.3 |
| 20260506104522 | 11 | 142 | 1.6 | 6.4 | 0.00 | 0.08 | 0.03 | 100 | 1004.3 |
| 20260506104022 | 11 | 235 | 1.6 | 4.8 | 0.00 | 0.08 | 0.03 | 100 | 1004.3 |
| 20260506103520 | 11 | 200 | 1.6 | 6.4 | 0.00 | 0.08 | 0.03 | 100 | 1004.3 |
| 20260506103022 | 10 | 212 | 0.0 | 6.4 | 0.00 | 0.08 | 0.03 | 100 | 1004.3 |
| 20260506102757 | 9 | 142 | 0.0 | 4.8 | 0.00 | 0.08 | 0.03 | 100 | 1004.3 |
| 20260506102521 | 10 | 255 | 0.0 | 4.8 | 0.00 | 0.08 | 0.03 | 100 | 1004.1 |
| 20260506101521 | 9 | 148 | 0.0 | 0.0 | 0.00 | 0.08 | 0.03 | 100 | 1004.1 |
| 20260506101019 | 8 | 134 | 0.0 | 0.0 | 0.00 | 0.08 | 0.03 | 100 | 1004.1 |
| 20260506100519 | 8 | 130 | 0.0 | 0.0 | 0.00 | 0.08 | 0.03 | 100 | 1004.1 |
| 20260506100019 | 8 | 100 | 0.0 | 0.0 | 0.00 | 0.08 | 0.03 | 100 | 1004.2 |
| 20260506095519 | 8 | 209 | 0.0 | 0.0 | 0.00 | 0.08 | 0.03 | 100 | 1004.1 |
| 20260506095018 | 9 | 209 | 0.0 | 0.0 | 0.00 | 0.08 | 0.03 | 100 | 1004.2 |
| 20260506094520 | 9 | 209 | 0.0 | 0.0 | 0.00 | 0.08 | 0.03 | 100 | 1004.2 |
| 20260506094019 | 9 | 209 | 0.0 | 0.0 | 0.00 | 0.08 | 0.03 | 100 | 1004.3 |
| 20260506093519 | 9 | 209 | 0.0 | 0.0 | 0.00 | 0.08 | 0.03 | 100 | 1004.2 |
| 20260506093247 | 9 | 209 | 0.0 | 0.0 | 0.00 | 0.08 | 0.03 | 100 | 1004.2 |
| 20260506092517 | 9 | 210 | 0.0 | 0.0 | 0.00 | 0.08 | 0.03 | 100 | 1004.3 |
| 20260506092017 | 9 | 210 | 0.0 | 0.0 | 0.00 | 0.08 | 0.03 | 100 | 1004.4 |
| 20260506091517 | 9 | 197 | 0.0 | 0.0 | 0.00 | 0.08 | 0.03 | 100 | 1004.4 |
| 20260506091016 | 10 | 197 | 0.0 | 0.0 | 0.00 | 0.08 | 0.03 | 100 | 1004.1 |
| 20260506090517 | 10 | 198 | 0.0 | 0.0 | 0.00 | 0.08 | 0.03 | 100 | 1004.3 |
| 20260506090017 | 10 | 199 | 0.0 | 0.0 | 0.00 | 0.08 | 0.03 | 100 | 1004.4 |
| 20260506085522 | 10 | 199 | 0.0 | 0.0 | 0.00 | 0.08 | 0.03 | 100 | 1004.2 |
| 20260506085517 | 10 | 199 | 0.0 | 0.0 | 0.00 | 0.08 | 0.03 | 100 | 1004.4 |
| 20260506084747 | 10 | 199 | 0.0 | 0.0 | 0.00 | 0.08 | 0.03 | 100 | 1004.1 |
| 20260506084017 | 10 | 199 | 0.0 | 0.0 | 0.00 | 0.08 | 0.03 | 100 | 1004.4 |
| 20260506083516 | 10 | 199 | 0.0 | 0.0 | 0.00 | 0.08 | 0.03 | 100 | 1004.4 |
| 20260506083017 | 10 | 199 | 0.0 | 0.0 | 0.00 | 0.08 | 0.03 | 100 | 1004.6 |
| 20260506082516 | 10 | 209 | 0.0 | 0.0 | 0.00 | 0.08 | 0.03 | 100 | 1004.5 |
| 20260506082017 | 10 | 209 | 0.0 | 0.0 | 0.00 | 0.08 | 0.03 | 100 | 1004.5 |
| 20260506081517 | 10 | 162 | 0.0 | 0.0 | 0.00 | 0.08 | 0.03 | 100 | 1004.5 |
| 20260506081015 | 10 | 162 | 0.0 | 0.0 | 0.00 | 0.08 | 0.03 | 100 | 1004.6 |
| 20260506080516 | 10 | 208 | 0.0 | 0.0 | 0.00 | 0.08 | 0.03 | 100 | 1004.6 |
| 20260506073512 | 10 | 208 | 0.0 | 0.0 | 0.00 | 0.08 | 0.03 | 100 | 1004.8 |
| 20260506073011 | 11 | 208 | 0.0 | 0.0 | 0.00 | 0.08 | 0.03 | 100 | 1004.8 |
| 20260506072511 | 11 | 208 | 0.0 | 0.0 | 0.00 | 0.08 | 0.03 | 100 | 1004.8 |
| 20260506072011 | 11 | 208 | 0.0 | 0.0 | 0.00 | 0.08 | 0.03 | 100 | 1004.9 |
| 20260506071508 | 11 | 208 | 0.0 | 0.0 | 0.00 | 0.08 | 0.03 | 100 | 1004.9 |
| 20260506071009 | 11 | 201 | 0.0 | 0.0 | 0.00 | 0.08 | 0.03 | 100 | 1004.9 |
| 20260506070509 | 11 | 201 | 0.0 | 0.0 | 0.00 | 0.08 | 0.03 | 100 | 1004.8 |
| 20260506062505 | 11 | 218 | 0.0 | 0.0 | 0.00 | 0.08 | 0.03 | 99 | 1004.6 |
| 20260506062004 | 11 | 218 | 0.0 | 0.0 | 0.00 | 0.08 | 0.03 | 99 | 1004.7 |
| 20260506061505 | 11 | 218 | 0.0 | 0.0 | 0.00 | 0.08 | 0.03 | 99 | 1004.7 |
| 20260506061004 | 12 | 219 | 0.0 | 0.0 | 0.00 | 0.08 | 0.03 | 99 | 1004.7 |
| 20260506060505 | 12 | 219 | 0.0 | 0.0 | 0.00 | 0.08 | 0.03 | 100 | 1004.8 |
| 20260506051001 | 12 | 175 | 0.0 | 0.0 | 0.03 | 0.08 | 0.03 | 99 | 1005.0 |
| 20260506050458 | 13 | 198 | 0.0 | 0.0 | 0.03 | 0.08 | 0.03 | 99 | 1005.0 |
| 20260506044955 | 13 | 172 | 0.0 | 0.0 | 0.00 | 0.05 | 0.00 | 99 | 1004.9 |
| 20260506044726 | 13 | 190 | 0.0 | 0.0 | 0.00 | 0.05 | 0.00 | 100 | 1005.0 |
| 20260506044600 | 13 | 201 | 0.0 | 0.0 | 0.00 | 0.05 | 0.00 | 100 | 1004.9 |
| 20260506043453 | 13 | 201 | 0.0 | 0.0 | 0.00 | 0.05 | 0.00 | 100 | 1004.9 |
| 20260506042951 | 13 | 208 | 0.0 | 0.0 | 0.00 | 0.05 | 0.00 | 100 | 1004.7 |
| 20260506042453 | 13 | 208 | 0.0 | 0.0 | 0.00 | 0.05 | 0.00 | 100 | 1004.8 |
| 20260506041952 | 13 | 163 | 0.0 | 0.0 | 0.00 | 0.05 | 0.00 | 100 | 1004.8 |
| 20260506041453 | 13 | 163 | 0.0 | 0.0 | 0.00 | 0.05 | 0.00 | 100 | 1004.9 |
| 20260506040954 | 13 | 212 | 0.0 | 0.0 | 0.00 | 0.05 | 0.00 | 100 | 1004.9 |
| 20260506040454 | 13 | 203 | 0.0 | 0.0 | 0.00 | 0.05 | 0.00 | 100 | 1004.9 |
| 20260506035951 | 13 | 196 | 0.0 | 0.0 | 0.00 | 0.05 | 0.05 | 100 | 1004.7 |
| 20260506035722 | 13 | 196 | 0.0 | 0.0 | 0.00 | 0.05 | 0.05 | 100 | 1004.6 |
| 20260506034951 | 13 | 198 | 0.0 | 0.0 | 0.00 | 0.05 | 0.05 | 100 | 1004.6 |
| 20260506034452 | 13 | 199 | 0.0 | 0.0 | 0.00 | 0.05 | 0.05 | 100 | 1004.6 |
| 20260506033951 | 13 | 199 | 0.0 | 0.0 | 0.00 | 0.05 | 0.05 | 100 | 1004.7 |
| 20260506033452 | 13 | 199 | 0.0 | 0.0 | 0.00 | 0.05 | 0.05 | 100 | 1004.7 |
| 20260506033223 | 13 | 200 | 0.0 | 0.0 | 0.00 | 0.05 | 0.05 | 100 | 1004.8 |
| 20260506032451 | 13 | 199 | 0.0 | 0.0 | 0.00 | 0.05 | 0.05 | 100 | 1004.7 |
| 20260506031952 | 13 | 200 | 0.0 | 0.0 | 0.00 | 0.05 | 0.05 | 100 | 1004.8 |
| 20260506031453 | 13 | 214 | 0.0 | 0.0 | 0.00 | 0.05 | 0.05 | 100 | 1004.9 |
| 20260506030952 | 13 | 164 | 0.0 | 0.0 | 0.00 | 0.05 | 0.05 | 99 | 1005.0 |
| 20260506030723 | 13 | 195 | 0.0 | 0.0 | 0.00 | 0.05 | 0.05 | 100 | 1005.0 |
| 20260506030222 | 13 | 207 | 0.0 | 0.0 | 0.00 | 0.05 | 0.05 | 99 | 1005.0 |
| 20260506025451 | 13 | 205 | 0.0 | 0.0 | 0.00 | 0.05 | 0.05 | 99 | 1005.0 |
| 20260506024952 | 13 | 183 | 0.0 | 0.0 | 0.00 | 0.05 | 0.05 | 99 | 1005.0 |
| 20260506024451 | 13 | 153 | 0.0 | 0.0 | 0.00 | 0.05 | 0.05 | 99 | 1004.9 |
| 20260506023951 | 13 | 154 | 0.0 | 0.0 | 0.00 | 0.05 | 0.05 | 99 | 1004.8 |
| 20260506023450 | 13 | 151 | 0.0 | 0.0 | 0.00 | 0.05 | 0.05 | 99 | 1004.7 |
| 20260506022949 | 13 | 151 | 0.0 | 0.0 | 0.00 | 0.05 | 0.05 | 99 | 1004.7 |
| 20260506022446 | 13 | 210 | 0.0 | 0.0 | 0.00 | 0.05 | 0.05 | 99 | 1004.9 |
| 20260506022217 | 13 | 210 | 0.0 | 0.0 | 0.00 | 0.05 | 0.05 | 99 | 1004.9 |
| 20260506021446 | 13 | 195 | 0.0 | 0.0 | 0.00 | 0.05 | 0.05 | 99 | 1005.0 |
| 20260506021215 | 13 | 186 | 0.0 | 0.0 | 0.00 | 0.05 | 0.05 | 99 | 1004.9 |
| 20260506020442 | 13 | 186 | 0.0 | 0.0 | 0.00 | 0.05 | 0.05 | 99 | 1004.9 |
| 20260506015942 | 13 | 186 | 0.0 | 0.0 | 0.00 | 0.05 | 0.05 | 99 | 1005.1 |
| 20260506015442 | 13 | 186 | 0.0 | 1.6 | 0.00 | 0.05 | 0.05 | 99 | 1004.9 |
| 20260506014943 | 13 | 191 | 0.0 | 1.6 | 0.00 | 0.05 | 0.05 | 99 | 1004.9 |
| 20260506014712 | 13 | 130 | 0.0 | 0.0 | 0.00 | 0.05 | 0.05 | 98 | 1004.8 |
| 20260506013938 | 14 | 162 | 0.0 | 0.0 | 0.00 | 0.05 | 0.05 | 98 | 1004.9 |
| 20260506013710 | 14 | 172 | 0.0 | 0.0 | 0.03 | 0.05 | 0.05 | 98 | 1004.8 |
| 20260506012938 | 14 | 174 | 0.0 | 0.0 | 0.03 | 0.05 | 0.05 | 98 | 1004.6 |
| 20260506012438 | 14 | 196 | 0.0 | 0.0 | 0.03 | 0.05 | 0.05 | 98 | 1004.6 |
| 20260506011938 | 14 | 212 | 0.0 | 1.6 | 0.03 | 0.05 | 0.05 | 98 | 1004.7 |
| 20260506011438 | 14 | 212 | 0.0 | 1.6 | 0.03 | 0.05 | 0.05 | 97 | 1004.5 |
| 20260506011215 | 14 | 180 | 0.0 | 0.0 | 0.03 | 0.05 | 0.05 | 96 | 1004.3 |
| 20260506010939 | 14 | 180 | 0.0 | 0.0 | 0.03 | 0.05 | 0.05 | 97 | 1004.6 |
| 20260506005938 | 15 | 180 | 0.0 | 0.0 | 0.03 | 0.05 | 0.05 | 96 | 1004.3 |
| 20260506005439 | 15 | 180 | 0.0 | 0.0 | 0.03 | 0.05 | 0.05 | 96 | 1004.4 |
| 20260506004936 | 15 | 164 | 0.0 | 1.6 | 0.03 | 0.05 | 0.05 | 95 | 1004.3 |
| 20260506004436 | 15 | 215 | 0.0 | 1.6 | 0.03 | 0.05 | 0.05 | 94 | 1004.3 |
| 20260506003936 | 15 | 152 | 1.6 | 3.2 | 0.03 | 0.05 | 0.05 | 92 | 1004.3 |
| 20260506003436 | 15 | 286 | 1.6 | 3.2 | 0.00 | 0.03 | 0.03 | 91 | 1004.3 |
| 20260506002937 | 15 | 219 | 0.0 | 1.6 | 0.00 | 0.03 | 0.03 | 91 | 1003.9 |
| 20260506002436 | 16 | 159 | 0.0 | 3.2 | 0.00 | 0.03 | 0.03 | 90 | 1003.7 |
| 20260506001937 | 16 | 159 | 0.0 | 3.2 | 0.00 | 0.03 | 0.03 | 90 | 1004.2 |
| 20260506001436 | 16 | 214 | 0.0 | 1.6 | 0.00 | 0.03 | 0.03 | 90 | 1004.1 |
| 20260506000936 | 16 | 210 | 1.6 | 3.2 | 0.00 | 0.03 | 0.03 | 89 | 1003.9 |
| 20260506000435 | 16 | 215 | 0.0 | 3.2 | 0.00 | 0.03 | 0.03 | 89 | 1003.9 |
| 20260505235936 | 16 | 175 | 0.0 | 1.6 | 0.00 | 0.03 | 0.03 | 89 | 1003.8 |
| 20260505235436 | 16 | 215 | 0.0 | 3.2 | 0.00 | 0.03 | 0.03 | 87 | 1003.7 |
| 20260505234937 | 16 | 153 | 0.0 | 3.2 | 0.00 | 0.03 | 0.03 | 88 | 1003.8 |
| 20260505234436 | 16 | 150 | 1.6 | 6.4 | 0.00 | 0.03 | 0.03 | 87 | 1003.9 |
| 20260505234206 | 16 | 196 | 1.6 | 6.4 | 0.00 | 0.03 | 0.03 | 86 | 1003.9 |
| 20260505233432 | 16 | 213 | 0.0 | 4.8 | 0.00 | 0.03 | 0.03 | 87 | 1003.8 |
| 20260505233204 | 16 | 208 | 0.0 | 4.8 | 0.00 | 0.03 | 0.03 | 87 | 1003.6 |
| 20260505232703 | 16 | 157 | 0.0 | 3.2 | 0.00 | 0.03 | 0.03 | 88 | 1003.6 |